Time;durP1;ratioP1;P1;durP2;ratioP2;P2;SDS_P1;SDS_P2;PMS_P1;PMS_P2;Temp;Humidity;BMP_temperature;BMP_pressure;BME280_temperature;BME280_humidity;BME280_pressure;Samples;Min_cycle;Max_cycle;Signal;HPM_P1;HPM_P2
2022/10/11 00:00:51;;;;;;;9.18;1.90;;;8.30;99.90;;;;;;6227878;23;20089;-78
2022/10/11 00:03:17;;;;;;;7.40;2.28;;;8.10;99.90;;;;;;6253967;23;20309;-78
2022/10/11 00:05:43;;;;;;;10.05;2.13;;;8.10;99.90;;;;;;6253965;23;20008;-80
2022/10/11 00:08:10;;;;;;;9.73;2.03;;;8.20;99.90;;;;;;6203645;23;20008;-79
2022/10/11 00:10:36;;;;;;;8.77;2.13;;;8.00;99.90;;;;;;6204201;23;20064;-80
2022/10/11 00:13:03;;;;;;;10.05;2.08;;;8.00;99.90;;;;;;6229221;23;20016;-78
2022/10/11 00:15:28;;;;;;;8.63;2.50;;;8.30;99.90;;;;;;6228164;23;20008;-78
2022/10/11 00:17:55;;;;;;;13.77;3.25;;;8.00;99.90;;;;;;6228072;23;20016;-78
2022/10/11 00:20:21;;;;;;;12.30;2.33;;;8.00;99.90;;;;;;6253728;23;20012;-78
2022/10/11 00:22:48;;;;;;;10.10;2.08;;;8.00;99.90;;;;;;6252580;23;20020;-77
2022/10/11 00:25:14;;;;;;;17.50;3.95;;;8.10;99.90;;;;;;6228390;23;20039;-78
2022/10/11 00:27:40;;;;;;;18.02;2.63;;;8.40;99.90;;;;;;6227987;23;20020;-79
2022/10/11 00:30:07;;;;;;;4.88;2.42;;;8.10;99.90;;;;;;6177938;23;20299;-78
2022/10/11 00:32:35;;;;;;;8.38;2.30;;;8.10;99.90;;;;;;6252969;23;20050;-78
2022/10/11 00:35:05;;;;;;;7.32;2.10;;;8.10;99.90;;;;;;6252263;23;20184;-79
2022/10/11 00:37:32;;;;;;;10.90;1.92;;;8.20;99.90;;;;;;6253723;23;20031;-79
2022/10/11 00:39:58;;;;;;;8.20;2.00;;;8.20;99.90;;;;;;6228246;23;20016;-78
2022/10/11 00:42:24;;;;;;;6.97;1.85;;;8.20;99.90;;;;;;6202878;23;20093;-78
2022/10/11 00:44:50;;;;;;;10.95;2.58;;;8.20;99.90;;;;;;6227472;23;20067;-78
2022/10/11 00:47:23;;;;;;;10.82;2.00;;;8.60;99.90;;;;;;6253310;23;20019;-77
2022/10/11 00:49:55;;;;;;;14.20;2.67;;;8.40;99.90;;;;;;6227639;23;20330;-78
2022/10/11 00:52:32;;;;;;;11.25;2.50;;;8.20;99.90;;;;;;6252606;23;20015;-78
2022/10/11 00:55:15;;;;;;;17.17;2.65;;;8.20;99.90;;;;;;6253133;23;20290;-79
2022/10/11 00:57:44;;;;;;;14.50;3.35;;;8.20;99.90;;;;;;6252991;23;20008;-78
2022/10/11 01:00:12;;;;;;;10.18;2.53;;;8.40;99.90;;;;;;6253405;23;20020;-78
2022/10/11 01:02:39;;;;;;;9.45;2.20;;;8.20;99.90;;;;;;6252768;23;20012;-77
2022/10/11 01:05:08;;;;;;;10.75;3.03;;;8.00;99.90;;;;;;6252862;23;20012;-77
2022/10/11 01:07:35;;;;;;;10.98;2.75;;;8.00;99.90;;;;;;6253262;23;20364;-79
2022/10/11 01:10:01;;;;;;;7.90;2.17;;;7.80;99.90;;;;;;6252983;23;20194;-78
2022/10/11 01:12:29;;;;;;;12.50;2.38;;;8.00;99.90;;;;;;6202782;23;20008;-78
2022/10/11 01:15:05;;;;;;;10.80;2.20;;;7.70;99.90;;;;;;6226992;23;20008;-78
2022/10/11 01:17:49;;;;;;;;;;;7.90;99.90;;;;;;6227848;23;20306;-78
2022/10/11 01:20:46;;;;;;;10.07;1.85;;;7.80;99.90;;;;;;6227529;23;19922;-78
2022/10/11 01:23:18;;;;;;;9.05;2.28;;;7.90;99.90;;;;;;6177733;23;20428;-78
2022/10/11 01:26:06;;;;;;;20.25;3.70;;;7.90;99.90;;;;;;6227992;23;20035;-79
2022/10/11 01:28:40;;;;;;;8.02;2.30;;;8.00;99.90;;;;;;6227586;23;20076;-78
2022/10/11 01:31:27;;;;;;;16.80;3.50;;;7.90;99.90;;;;;;6227930;23;20091;-78
2022/10/11 01:34:01;;;;;;;7.00;2.40;;;7.70;99.90;;;;;;6252180;23;20235;-79
2022/10/11 01:36:32;;;;;;;8.55;2.25;;;7.80;99.90;;;;;;6252449;23;20079;-78
2022/10/11 01:39:03;;;;;;;10.02;2.60;;;7.80;99.90;;;;;;6252433;23;20083;-77
2022/10/11 01:41:45;;;;;;;13.27;2.60;;;7.80;99.90;;;;;;6252774;23;20012;-77
2022/10/11 01:44:12;;;;;;;10.10;2.97;;;7.70;99.90;;;;;;6227207;23;20070;-78
2022/10/11 01:46:38;;;;;;;9.50;2.33;;;7.80;99.90;;;;;;6227263;23;20012;-77
2022/10/11 01:49:04;;;;;;;8.73;2.58;;;7.70;99.90;;;;;;6252438;23;20054;-77
2022/10/11 01:52:03;;;;;;;8.48;2.03;;;7.60;99.90;;;;;;6227054;23;20015;-76
2022/10/11 01:54:38;;;;;;;12.02;2.63;;;7.50;99.90;;;;;;6172294;23;20016;-76
2022/10/11 01:57:47;;;;;;;12.10;2.35;;;7.70;99.90;;;;;;6226932;23;20020;-76
2022/10/11 02:00:19;;;;;;;12.05;2.65;;;7.70;99.90;;;;;;6226966;23;20019;-77
2022/10/11 02:03:24;;;;;;;8.88;1.90;;;7.50;99.90;;;;;;6252316;23;20083;-77
2022/10/11 02:06:11;;;;;;;9.63;2.45;;;7.50;99.90;;;;;;6082367;23;20014;-77
2022/10/11 02:08:40;;;;;;;11.32;2.60;;;7.60;99.90;;;;;;6107306;23;20101;-77
2022/10/11 02:11:17;;;;;;;13.10;2.95;;;7.50;99.90;;;;;;6172818;23;20030;-77
2022/10/11 02:14:23;;;;;;;9.70;2.15;;;7.70;99.90;;;;;;6252198;23;20012;-77
2022/10/11 02:17:02;;;;;;;9.73;2.35;;;7.70;99.90;;;;;;6225287;23;20078;-77
2022/10/11 02:19:33;;;;;;;9.23;2.65;;;7.60;99.90;;;;;;6252761;23;20079;-77
2022/10/11 02:22:05;;;;;;;8.82;2.45;;;9.50;99.90;;;;;;6252092;23;20020;-77
2022/10/11 02:24:34;;;;;;;11.95;2.28;;;7.70;99.90;;;;;;6227946;23;20030;-77
2022/10/11 02:27:03;;;;;;;7.35;1.90;;;7.70;99.90;;;;;;6252127;23;20020;-77
2022/10/11 02:29:32;;;;;;;6.40;2.20;;;7.40;99.90;;;;;;6226666;23;20401;-77
2022/10/11 02:31:59;;;;;;;9.68;2.50;;;7.50;99.90;;;;;;6228214;23;20016;-78
2022/10/11 02:34:25;;;;;;;8.30;1.83;;;7.40;99.90;;;;;;6229683;23;20051;-77
2022/10/11 02:37:08;;;;;;;8.88;2.88;;;7.50;99.90;;;;;;6253363;23;20019;-77
2022/10/11 02:40:02;;;;;;;14.43;2.67;;;7.50;99.90;;;;;;6229318;23;20310;-78
2022/10/11 02:42:57;;;;;;;15.00;2.97;;;7.50;99.90;;;;;;6253874;23;20059;-77
2022/10/11 02:45:41;;;;;;;9.02;2.15;;;7.60;99.90;;;;;;6228996;23;20245;-78
2022/10/11 02:48:09;;;;;;;10.73;2.90;;;7.40;99.90;;;;;;6253855;23;20015;-78
2022/10/11 02:50:35;;;;;;;13.95;3.20;;;7.40;99.90;;;;;;6228824;23;20218;-78
2022/10/11 02:53:03;;;;;;;9.98;2.13;;;7.50;99.90;;;;;;6253867;23;20008;-79
2022/10/11 02:55:32;;;;;;;15.85;3.47;;;7.50;99.90;;;;;;6254173;23;20203;-78
2022/10/11 02:57:57;;;;;;;4.50;2.20;;;7.50;99.90;;;;;;6203829;23;20015;-78
2022/10/11 03:00:23;;;;;;;10.80;2.08;;;7.60;99.90;;;;;;6228974;23;20012;-78
2022/10/11 03:02:49;;;;;;;10.23;2.10;;;7.40;99.90;;;;;;6254145;23;20024;-79
2022/10/11 03:05:14;;;;;;;9.82;2.08;;;7.40;99.90;;;;;;6229108;23;20106;-78
2022/10/11 03:07:40;;;;;;;10.77;2.17;;;7.20;99.90;;;;;;6228216;23;20043;-78
2022/10/11 03:10:07;;;;;;;13.88;2.47;;;7.20;99.90;;;;;;6228901;23;20067;-79
2022/10/11 03:12:32;;;;;;;9.02;2.30;;;7.30;99.90;;;;;;6255045;23;20036;-79
2022/10/11 03:14:58;;;;;;;12.93;2.65;;;7.40;99.90;;;;;;6204205;23;20234;-79
2022/10/11 03:17:25;;;;;;;10.30;2.03;;;7.90;99.90;;;;;;6204426;23;20008;-79
2022/10/11 03:19:51;;;;;;;8.07;2.25;;;7.70;99.90;;;;;;6228813;23;20083;-79
2022/10/11 03:22:16;;;;;;;17.75;2.97;;;7.40;99.90;;;;;;6204356;23;20294;-79
2022/10/11 03:24:43;;;;;;;14.65;2.85;;;7.60;99.90;;;;;;6204663;23;20012;-79
2022/10/11 03:27:09;;;;;;;8.65;3.15;;;7.30;99.90;;;;;;6228413;23;20016;-79
2022/10/11 03:29:35;;;;;;;13.07;2.80;;;8.20;99.90;;;;;;6254461;23;20244;-79
2022/10/11 03:32:01;;;;;;;12.48;2.88;;;9.30;99.90;;;;;;6179261;23;20016;-79
2022/10/11 03:34:27;;;;;;;9.75;2.28;;;7.60;99.90;;;;;;6254240;23;20020;-78
2022/10/11 03:36:53;;;;;;;5.72;1.95;;;7.30;99.90;;;;;;6254403;23;20078;-79
2022/10/11 03:39:19;;;;;;;8.13;1.70;;;7.30;99.90;;;;;;6179424;23;20182;-79
2022/10/11 03:41:44;;;;;;;8.93;1.60;;;7.20;99.90;;;;;;6229408;23;20020;-79
2022/10/11 03:44:10;;;;;;;7.68;2.08;;;7.10;99.90;;;;;;6229207;23;20026;-79
2022/10/11 03:46:36;;;;;;;10.45;2.17;;;7.80;99.90;;;;;;6254458;23;20245;-79
2022/10/11 03:49:01;;;;;;;10.05;2.58;;;7.50;99.90;;;;;;6228184;23;20075;-79
2022/10/11 03:51:27;;;;;;;12.52;2.10;;;7.40;99.90;;;;;;6254345;23;20015;-78
2022/10/11 03:53:53;;;;;;;15.38;2.38;;;7.20;99.90;;;;;;6228621;23;20032;-78
2022/10/11 03:56:18;;;;;;;6.45;1.92;;;7.50;99.90;;;;;;6203492;23;20016;-79
2022/10/11 03:58:44;;;;;;;11.93;2.75;;;7.40;99.90;;;;;;6229195;23;20058;-78
2022/10/11 04:01:10;;;;;;;13.57;2.60;;;7.50;99.90;;;;;;6228377;23;20206;-78
2022/10/11 04:03:36;;;;;;;8.95;2.00;;;7.40;99.90;;;;;;6254314;23;20229;-78
2022/10/11 04:06:01;;;;;;;14.05;2.50;;;7.30;99.90;;;;;;6252831;23;20020;-77
2022/10/11 04:08:27;;;;;;;18.85;2.85;;;7.50;99.90;;;;;;6253050;23;20062;-76
2022/10/11 04:10:53;;;;;;;11.38;2.42;;;7.50;99.90;;;;;;6227655;23;20050;-77
2022/10/11 04:13:18;;;;;;;12.75;2.60;;;7.60;99.90;;;;;;6227752;23;20008;-77
2022/10/11 04:15:45;;;;;;;10.95;2.10;;;7.40;99.90;;;;;;6228026;23;20044;-77
2022/10/11 04:18:11;;;;;;;9.55;2.10;;;7.40;99.90;;;;;;6227507;23;20008;-78
2022/10/11 04:20:37;;;;;;;14.82;2.80;;;7.40;99.90;;;;;;6227558;23;20027;-77
2022/10/11 04:23:02;;;;;;;8.98;2.03;;;7.40;99.90;;;;;;6253085;23;20035;-77
2022/10/11 04:25:28;;;;;;;12.25;2.13;;;9.20;99.90;;;;;;6228078;23;20019;-78
2022/10/11 04:27:54;;;;;;;12.60;2.15;;;7.30;99.90;;;;;;6227262;23;20034;-79
2022/10/11 04:30:20;;;;;;;9.05;2.20;;;7.40;99.90;;;;;;6227947;23;20054;-79
2022/10/11 04:32:45;;;;;;;15.48;2.47;;;7.50;99.90;;;;;;6228432;23;20294;-79
2022/10/11 04:35:11;;;;;;;12.68;2.13;;;7.60;99.90;;;;;;6227885;23;20071;-79
2022/10/11 04:37:37;;;;;;;13.65;2.63;;;7.90;99.90;;;;;;6228001;23;20024;-80
2022/10/11 04:40:04;;;;;;;11.80;2.50;;;7.40;99.90;;;;;;6203448;23;20076;-79
2022/10/11 04:42:30;;;;;;;8.52;2.20;;;7.50;99.90;;;;;;6228199;23;20015;-79
2022/10/11 04:44:56;;;;;;;12.82;2.72;;;7.40;99.90;;;;;;6227936;23;20210;-79
2022/10/11 04:47:22;;;;;;;15.45;2.90;;;7.40;99.90;;;;;;6228437;23;20012;-79
2022/10/11 04:49:47;;;;;;;6.97;1.75;;;7.50;99.90;;;;;;6202812;23;20077;-78
2022/10/11 04:52:13;;;;;;;11.77;2.40;;;7.50;99.90;;;;;;6202453;23;20298;-78
2022/10/11 04:54:39;;;;;;;9.75;2.10;;;7.40;99.90;;;;;;6226952;23;20008;-78
2022/10/11 04:57:04;;;;;;;11.60;2.10;;;7.10;99.90;;;;;;6176884;23;20015;-78
2022/10/11 04:59:30;;;;;;;11.48;2.17;;;7.10;99.90;;;;;;6227743;23;20016;-77
2022/10/11 05:01:56;;;;;;;12.70;2.60;;;7.30;99.90;;;;;;6251898;23;20238;-78
2022/10/11 05:04:21;;;;;;;8.50;2.08;;;7.40;99.90;;;;;;6201960;23;20059;-79
2022/10/11 05:06:47;;;;;;;13.70;2.85;;;7.30;99.90;;;;;;6227937;23;20062;-77
2022/10/11 05:09:13;;;;;;;17.08;2.80;;;7.40;99.90;;;;;;6226811;23;20046;-77
2022/10/11 05:11:39;;;;;;;11.30;2.20;;;7.50;99.90;;;;;;6252800;23;20015;-78
2022/10/11 05:14:05;;;;;;;14.10;2.30;;;7.30;99.90;;;;;;6227269;23;20315;-78
2022/10/11 05:16:30;;;;;;;6.88;1.95;;;7.10;99.90;;;;;;6227955;23;20015;-79
2022/10/11 05:18:56;;;;;;;7.88;2.20;;;7.20;99.90;;;;;;6226689;23;20261;-77
2022/10/11 05:21:28;;;;;;;8.55;2.20;;;7.00;99.90;;;;;;6228317;23;20071;-78
2022/10/11 05:23:55;;;;;;;7.05;1.70;;;7.30;99.90;;;;;;6228040;23;20027;-79
2022/10/11 05:26:21;;;;;;;11.82;2.20;;;7.00;99.90;;;;;;6228310;23;20047;-79
2022/10/11 05:28:47;;;;;;;7.93;2.00;;;7.20;99.90;;;;;;6253919;23;20023;-79
2022/10/11 05:31:13;;;;;;;8.68;2.03;;;7.00;99.90;;;;;;6203209;23;20393;-77
2022/10/11 05:33:39;;;;;;;13.70;2.67;;;7.30;99.90;;;;;;6253329;23;20051;-77
2022/10/11 05:36:06;;;;;;;12.52;2.05;;;7.10;99.90;;;;;;6227207;23;20022;-78
2022/10/11 05:38:31;;;;;;;13.93;2.40;;;7.30;99.90;;;;;;6252249;23;20215;-78
2022/10/11 05:41:01;;;;;;;8.38;1.77;;;7.20;99.90;;;;;;6252462;23;20016;-72
2022/10/11 05:43:28;;;;;;;10.85;2.20;;;7.00;99.90;;;;;;6253651;23;20020;-78
2022/10/11 05:45:54;;;;;;;9.80;2.15;;;7.20;99.90;;;;;;6227556;23;20015;-78
2022/10/11 05:48:20;;;;;;;12.30;2.47;;;7.00;99.90;;;;;;6252878;23;20048;-78
2022/10/11 05:50:46;;;;;;;20.42;2.22;;;7.20;99.90;;;;;;6252539;23;20023;-77
2022/10/11 05:53:11;;;;;;;15.95;2.85;;;7.20;99.90;;;;;;6227031;23;20191;-78
2022/10/11 05:55:39;;;;;;;9.95;2.58;;;7.50;99.90;;;;;;6227098;23;20051;-78
2022/10/11 05:58:06;;;;;;;8.88;2.38;;;7.40;99.90;;;;;;6227144;23;20008;-79
2022/10/11 06:00:35;;;;;;;8.43;2.10;;;7.40;99.90;;;;;;6227775;23;20302;-78
2022/10/11 06:03:01;;;;;;;15.13;2.15;;;7.30;99.90;;;;;;6251995;23;20071;-78
2022/10/11 06:05:27;;;;;;;9.35;2.08;;;8.10;99.90;;;;;;6253063;23;20290;-78
2022/10/11 06:07:52;;;;;;;13.25;2.45;;;7.50;99.90;;;;;;6254316;23;20373;-78
2022/10/11 06:10:18;;;;;;;12.27;1.92;;;7.70;99.90;;;;;;6228102;23;20012;-78
2022/10/11 06:12:44;;;;;;;8.77;2.53;;;7.60;99.90;;;;;;6229407;23;20014;-78
2022/10/11 06:15:10;;;;;;;7.18;2.35;;;7.40;99.90;;;;;;6203752;23;20070;-78
2022/10/11 06:17:36;;;;;;;10.77;1.60;;;7.50;99.90;;;;;;6204151;23;20063;-78
2022/10/11 06:20:03;;;;;;;14.93;2.17;;;7.60;99.90;;;;;;6179479;23;20278;-79
2022/10/11 06:22:29;;;;;;;13.60;2.15;;;7.70;99.90;;;;;;6229793;23;20012;-79
2022/10/11 06:24:54;;;;;;;11.55;2.40;;;7.60;99.90;;;;;;6204259;23;20034;-78
2022/10/11 06:27:20;;;;;;;11.05;2.72;;;7.90;99.90;;;;;;6228018;23;20180;-78
2022/10/11 06:29:46;;;;;;;11.18;2.60;;;7.90;99.90;;;;;;6229251;23;20287;-78
2022/10/11 06:32:14;;;;;;;13.00;3.45;;;7.90;99.90;;;;;;6204157;23;20020;-78
2022/10/11 06:34:40;;;;;;;12.50;2.97;;;7.90;99.90;;;;;;6229841;23;20075;-78
2022/10/11 06:37:06;;;;;;;9.93;2.15;;;8.10;99.90;;;;;;6205214;23;20325;-80
2022/10/11 06:39:33;;;;;;;11.40;2.65;;;8.20;99.90;;;;;;6254815;23;20070;-80
2022/10/11 06:41:59;;;;;;;12.73;2.40;;;7.90;99.90;;;;;;6228875;23;20249;-80
2022/10/11 06:44:25;;;;;;;8.57;2.35;;;8.00;99.90;;;;;;6228995;23;20071;-80
2022/10/11 06:46:51;;;;;;;10.35;2.10;;;8.10;99.90;;;;;;6228289;23;20039;-79
2022/10/11 06:49:17;;;;;;;10.73;2.47;;;8.30;99.90;;;;;;6228426;23;20023;-80
2022/10/11 06:51:43;;;;;;;8.95;2.13;;;8.70;99.90;;;;;;6178960;23;20023;-81
2022/10/11 06:54:09;;;;;;;6.15;1.70;;;8.40;99.90;;;;;;6178463;23;20071;-80
2022/10/11 06:56:35;;;;;;;7.25;2.28;;;8.40;99.90;;;;;;6230072;23;20008;-80
2022/10/11 06:59:02;;;;;;;6.43;1.90;;;8.60;99.90;;;;;;6204375;23;20075;-81
2022/10/11 07:01:28;;;;;;;7.28;2.30;;;8.90;99.90;;;;;;6204753;23;20187;-81
2022/10/11 07:03:55;;;;;;;4.47;1.60;;;8.90;99.90;;;;;;6229502;23;20019;-79
2022/10/11 07:06:26;;;;;;;7.80;1.65;;;9.30;99.90;;;;;;6229259;23;20020;-78
2022/10/11 07:08:52;;;;;;;6.70;1.70;;;9.20;99.90;;;;;;6203901;23;20575;-79
2022/10/11 07:11:21;;;;;;;7.38;1.70;;;9.40;99.90;;;;;;6203302;23;20015;-83
2022/10/11 07:13:52;;;;;;;8.93;2.30;;;9.60;99.90;;;;;;6255058;23;20211;-83
2022/10/11 07:16:19;;;;;;;9.35;2.08;;;9.50;99.90;;;;;;6229250;23;20302;-80
2022/10/11 07:18:45;;;;;;;8.50;2.30;;;9.80;99.90;;;;;;6228846;23;20206;-77
2022/10/11 07:21:14;;;;;;;7.10;1.92;;;9.80;99.90;;;;;;6204210;23;20040;-77
2022/10/11 07:23:40;;;;;;;6.65;1.67;;;10.10;99.90;;;;;;6253816;23;20302;-78
2022/10/11 07:26:07;;;;;;;6.00;1.40;;;10.10;99.90;;;;;;6228551;23;20062;-77
2022/10/11 07:28:34;;;;;;;6.53;1.95;;;10.00;99.90;;;;;;6228979;23;20071;-78
2022/10/11 07:31:13;;;;;;;7.95;1.90;;;10.20;99.90;;;;;;6203931;23;20195;-77
2022/10/11 07:33:39;;;;;;;7.53;1.75;;;10.10;99.90;;;;;;6228627;23;20004;-79
2022/10/11 07:36:05;;;;;;;6.80;1.45;;;10.10;99.90;;;;;;6253884;23;20043;-78
2022/10/11 07:38:32;;;;;;;8.40;1.60;;;10.30;99.90;;;;;;6227813;23;20012;-79
2022/10/11 07:40:58;;;;;;;8.40;2.80;;;10.30;99.90;;;;;;6204243;23;20008;-80
2022/10/11 07:43:24;;;;;;;10.77;2.13;;;10.20;99.90;;;;;;6229206;23;20063;-79
2022/10/11 07:45:55;;;;;;;6.55;1.80;;;10.30;99.90;;;;;;6228915;23;20191;-79
2022/10/11 07:48:22;;;;;;;6.03;1.48;;;10.40;99.90;;;;;;6253523;23;20034;-78
2022/10/11 07:50:48;;;;;;;10.13;1.85;;;10.40;99.90;;;;;;6253723;23;20008;-78
2022/10/11 07:53:13;;;;;;;8.02;2.03;;;10.60;99.90;;;;;;6252999;23;20016;-78
2022/10/11 07:55:39;;;;;;;6.60;1.83;;;10.60;99.90;;;;;;6253980;23;20067;-78
2022/10/11 07:58:09;;;;;;;6.40;1.77;;;10.70;99.90;;;;;;6225830;23;20293;-79
2022/10/11 08:00:35;;;;;;;5.45;1.50;;;10.80;99.90;;;;;;6227133;23;20020;-79
2022/10/11 08:03:03;;;;;;;9.18;2.78;;;10.80;99.90;;;;;;6252882;23;20194;-80
2022/10/11 08:05:29;;;;;;;5.32;1.40;;;10.90;99.90;;;;;;6253110;23;20074;-78
2022/10/11 08:07:56;;;;;;;9.95;1.85;;;11.00;99.90;;;;;;6227417;23;20012;-78
2022/10/11 08:10:23;;;;;;;5.90;1.40;;;11.10;99.90;;;;;;6227819;23;20049;-79
2022/10/11 08:12:48;;;;;;;5.78;1.80;;;11.10;99.90;;;;;;6202523;23;20038;-78
2022/10/11 08:15:14;;;;;;;8.85;1.65;;;11.10;99.90;;;;;;6227174;23;20008;-78
2022/10/11 08:17:40;;;;;;;8.65;1.73;;;11.20;99.90;;;;;;6227462;23;20194;-81
2022/10/11 08:20:08;;;;;;;9.45;2.03;;;11.10;99.90;;;;;;6252834;23;20008;-80
2022/10/11 08:22:43;;;;;;;8.52;1.88;;;11.20;99.90;;;;;;6227548;23;20012;-78
2022/10/11 08:25:09;;;;;;;9.00;2.10;;;11.20;99.90;;;;;;6227513;23;20238;-79
2022/10/11 08:27:35;;;;;;;7.82;1.70;;;11.20;99.90;;;;;;6253024;23;20079;-80
2022/10/11 08:30:01;;;;;;;11.23;2.00;;;11.50;99.90;;;;;;6227069;23;20012;-80
2022/10/11 08:32:27;;;;;;;8.52;1.58;;;11.40;99.90;;;;;;6202332;23;20014;-80
2022/10/11 08:34:53;;;;;;;6.35;2.05;;;11.30;99.90;;;;;;6227501;23;20024;-79
2022/10/11 08:37:19;;;;;;;9.18;1.52;;;11.50;99.90;;;;;;6226903;23;20047;-79
2022/10/11 08:39:44;;;;;;;4.10;1.77;;;11.60;99.90;;;;;;6202600;23;20482;-79
2022/10/11 08:42:21;;;;;;;7.88;1.58;;;11.60;99.90;;;;;;6252203;23;20023;-79
2022/10/11 08:44:56;;;;;;;5.47;1.70;;;11.70;99.90;;;;;;6252647;23;20211;-79
2022/10/11 08:47:30;;;;;;;6.78;1.98;;;11.80;99.90;;;;;;6227618;23;20008;-80
2022/10/11 08:49:57;;;;;;;12.13;2.05;;;11.90;99.90;;;;;;6253215;23;20012;-79
2022/10/11 08:52:29;;;;;;;7.63;1.30;;;11.90;99.90;;;;;;6227410;23;20210;-80
2022/10/11 08:55:01;;;;;;;6.13;1.20;;;12.00;99.90;;;;;;6227494;23;20090;-79
2022/10/11 08:57:33;;;;;;;9.25;1.90;;;12.10;99.90;;;;;;6227731;23;20016;-78
2022/10/11 09:00:03;;;;;;;5.15;1.50;;;12.10;99.90;;;;;;6252501;23;20081;-79
2022/10/11 09:02:34;;;;;;;9.85;2.10;;;12.30;99.90;;;;;;6226731;23;20039;-79
2022/10/11 09:05:02;;;;;;;6.32;1.58;;;12.20;99.90;;;;;;6252913;23;20206;-80
2022/10/11 09:07:41;;;;;;;9.27;1.90;;;12.40;99.90;;;;;;6252178;23;20340;-79
2022/10/11 09:10:34;;;;;;;11.18;1.95;;;12.30;99.90;;;;;;6225993;23;20074;-77
2022/10/11 09:13:19;;;;;;;11.10;1.50;;;12.60;99.90;;;;;;6227591;23;20043;-78
2022/10/11 09:16:08;;;;;;;10.60;1.98;;;12.60;99.90;;;;;;6252151;23;20044;-77
2022/10/11 09:18:41;;;;;;;7.32;1.60;;;12.70;99.90;;;;;;6227017;23;20199;-81
2022/10/11 09:21:22;;;;;;;7.53;1.95;;;12.70;99.90;;;;;;6227043;23;20063;-79
2022/10/11 09:24:12;;;;;;;6.47;1.70;;;12.80;99.90;;;;;;6226858;23;20023;-80
2022/10/11 09:26:58;;;;;;;10.98;1.80;;;12.90;99.90;;;;;;6227388;23;20294;-80
2022/10/11 09:29:49;;;;;;;6.93;1.70;;;13.10;99.90;;;;;;6252402;23;20012;-80
2022/10/11 09:32:20;;;;;;;6.18;1.25;;;13.10;99.90;;;;;;6252565;23;20082;-79
2022/10/11 09:34:51;;;;;;;9.10;1.70;;;13.20;99.90;;;;;;6227018;23;20054;-79
2022/10/11 09:37:25;;;;;;;7.72;1.60;;;13.30;99.90;;;;;;6252187;23;20024;-79
2022/10/11 09:40:09;;;;;;;7.35;1.70;;;13.50;99.90;;;;;;6227555;23;20012;-79
2022/10/11 09:42:35;;;;;;;11.03;1.87;;;13.70;99.90;;;;;;6252072;23;20067;-81
2022/10/11 09:45:12;;;;;;;5.40;1.73;;;13.90;99.90;;;;;;6252540;23;20019;-79
2022/10/11 09:47:38;;;;;;;6.85;1.67;;;14.20;99.90;;;;;;6227093;23;20031;-80
2022/10/11 09:50:13;;;;;;;8.85;2.03;;;14.60;99.90;;;;;;6202101;23;20012;-79
2022/10/11 09:52:51;;;;;;;8.80;1.88;;;14.70;99.90;;;;;;6252313;23;20202;-79
2022/10/11 09:55:34;;;;;;;9.80;1.95;;;14.70;99.90;;;;;;6251952;23;20067;-79
2022/10/11 09:58:01;;;;;;;5.18;1.60;;;14.70;99.90;;;;;;6252154;23;20008;-79
2022/10/11 10:00:32;;;;;;;9.73;2.28;;;14.70;99.90;;;;;;6226512;23;20012;-79
2022/10/11 10:03:03;;;;;;;8.52;1.80;;;14.70;99.90;;;;;;6252637;23;20040;-81
2022/10/11 10:05:32;;;;;;;12.80;2.05;;;14.50;99.90;;;;;;6252315;23;20020;-80
2022/10/11 10:08:10;;;;;;;8.50;1.60;;;14.70;99.90;;;;;;6226720;23;20019;-79
2022/10/11 10:10:39;;;;;;;6.15;1.35;;;14.80;99.90;;;;;;6226564;23;20302;-79
2022/10/11 10:13:17;;;;;;;9.32;1.85;;;14.80;99.90;;;;;;6252455;23;20030;-79
2022/10/11 10:15:46;;;;;;;5.00;1.50;;;14.90;99.90;;;;;;6226478;23;20067;-79
2022/10/11 10:18:35;;;;;;;9.48;1.92;;;14.90;99.90;;;;;;6226663;23;20044;-78
2022/10/11 10:21:02;;;;;;;9.55;1.70;;;15.00;99.90;;;;;;6251482;23;20070;-78
2022/10/11 10:23:34;;;;;;;7.95;1.90;;;15.00;99.90;;;;;;6251531;23;20008;-79
2022/10/11 10:26:16;;;;;;;11.48;1.70;;;15.00;99.90;;;;;;6252186;23;20183;-79
2022/10/11 10:28:57;;;;;;;5.03;2.20;;;14.90;99.90;;;;;;6251702;23;20291;-79
2022/10/11 10:31:28;;;;;;;9.95;1.98;;;15.00;99.90;;;;;;6251920;23;20016;-79
2022/10/11 10:33:56;;;;;;;5.00;1.70;;;15.00;99.90;;;;;;6226577;23;20071;-79
2022/10/11 10:36:27;;;;;;;8.50;2.72;;;15.10;99.90;;;;;;6251901;23;20070;-80
2022/10/11 10:39:07;;;;;;;10.88;2.00;;;15.10;99.90;;;;;;6252333;23;20075;-79
2022/10/11 10:41:34;;;;;;;8.00;1.50;;;15.10;99.90;;;;;;6251767;23;20302;-79
2022/10/11 10:44:02;;;;;;;4.70;1.23;;;15.00;99.90;;;;;;6226325;23;20018;-78
2022/10/11 10:46:39;;;;;;;6.28;1.70;;;15.20;99.90;;;;;;6251111;23;20027;-78
2022/10/11 10:49:13;;;;;;;8.80;1.73;;;15.30;99.90;;;;;;6252111;23;20108;-78
2022/10/11 10:52:16;;;;;;;6.55;1.63;;;15.20;99.90;;;;;;6226529;23;20035;-78
2022/10/11 10:55:01;;;;;;;8.35;1.65;;;14.90;99.90;;;;;;6174762;23;20073;-79
2022/10/11 10:57:45;;;;;;;7.28;1.77;;;14.80;99.90;;;;;;6228127;23;20011;-78
2022/10/11 11:00:20;;;;;;;7.65;1.60;;;14.60;99.90;;;;;;6228416;23;20019;-78
2022/10/11 11:02:58;;;;;;;9.40;1.67;;;14.60;99.90;;;;;;6228304;23;20119;-78
2022/10/11 11:05:58;;;;;;;7.20;2.00;;;14.70;99.90;;;;;;6253167;23;20058;-78
2022/10/11 11:08:27;;;;;;;7.72;1.50;;;14.80;99.90;;;;;;6253267;23;20198;-79
2022/10/11 11:11:07;;;;;;;10.02;1.90;;;15.00;99.90;;;;;;6253891;23;20008;-79
2022/10/11 11:13:39;;;;;;;7.82;1.77;;;15.30;99.90;;;;;;6227786;23;20258;-79
2022/10/11 11:16:24;;;;;;;9.30;1.70;;;15.50;99.90;;;;;;6253848;23;20008;-78
2022/10/11 11:18:53;;;;;;;;;;;15.40;99.90;;;;;;6228649;23;20012;-79
2022/10/11 11:21:38;;;;;;;7.45;1.63;;;15.50;99.90;;;;;;6252837;23;19930;-79
2022/10/11 11:24:18;;;;;;;;;;;15.40;99.90;;;;;;6254286;23;20066;-79
2022/10/11 11:26:56;;;;;;;6.50;1.90;;;15.20;99.90;;;;;;6253283;23;19940;-79
2022/10/11 11:29:30;;;;;;;8.50;1.90;;;15.10;99.90;;;;;;6252881;23;20039;-79
2022/10/11 11:32:09;;;;;;;9.32;1.58;;;14.90;99.90;;;;;;6253670;23;20008;-79
2022/10/11 11:35:07;;;;;;;7.05;1.48;;;14.80;99.90;;;;;;6227535;23;20016;-80
2022/10/11 11:37:42;;;;;;;6.25;1.40;;;14.70;99.90;;;;;;6228864;23;20210;-80
2022/10/11 11:40:27;;;;;;;7.25;1.95;;;14.50;99.90;;;;;;6254899;22;20019;-79
2022/10/11 11:42:58;;;;;;;7.53;1.42;;;14.30;99.90;;;;;;6228442;23;20016;-79
2022/10/11 11:45:28;;;;;;;9.55;1.63;;;14.00;99.90;;;;;;6253495;23;20019;-79
2022/10/11 11:48:06;;;;;;;5.88;1.40;;;13.90;99.90;;;;;;6253758;23;20286;-79
2022/10/11 11:50:45;;;;;;;4.75;1.33;;;13.70;99.90;;;;;;6227036;23;20330;-79
2022/10/11 11:53:17;;;;;;;6.50;1.20;;;13.60;99.90;;;;;;6228135;23;20226;-78
2022/10/11 11:56:21;;;;;;;4.60;1.48;;;13.50;99.90;;;;;;6253186;23;20008;-78
2022/10/11 11:59:32;;;;;;;8.50;1.65;;;13.70;99.90;;;;;;6170717;23;20020;-78
2022/10/11 12:02:13;;;;;;;6.90;1.17;;;13.70;99.90;;;;;;6227819;23;20012;-78
2022/10/11 12:04:42;;;;;;;4.97;1.13;;;13.90;99.90;;;;;;6226660;23;20019;-78
2022/10/11 12:07:12;;;;;;;3.40;1.13;;;14.00;99.90;;;;;;6228229;23;20023;-79
2022/10/11 12:09:42;;;;;;;7.55;1.38;;;14.10;99.90;;;;;;6252414;23;20023;-78
2022/10/11 12:12:36;;;;;;;5.32;1.35;;;14.20;99.90;;;;;;6228356;23;20027;-78
2022/10/11 12:15:08;;;;;;;8.40;1.58;;;14.40;99.90;;;;;;6228188;23;20194;-79
2022/10/11 12:17:56;;;;;;;6.10;1.33;;;14.30;99.90;;;;;;6252458;23;20015;-79
2022/10/11 12:20:39;;;;;;;8.55;1.60;;;14.30;99.90;;;;;;6252528;23;20019;-79
2022/10/11 12:23:27;;;;;;;5.95;1.38;;;14.30;99.90;;;;;;6227911;23;20082;-79
2022/10/11 12:26:26;;;;;;;7.90;1.58;;;14.50;99.90;;;;;;6227624;23;20012;-79
2022/10/11 12:29:14;;;;;;;6.60;1.45;;;14.50;99.90;;;;;;6227201;23;20195;-79
2022/10/11 12:31:40;;;;;;;6.03;1.25;;;14.50;99.90;;;;;;6226914;23;20062;-79
2022/10/11 12:34:08;;;;;;;9.07;1.48;;;14.50;99.90;;;;;;6227117;23;20055;-79
2022/10/11 12:36:43;;;;;;;6.22;1.13;;;14.60;99.90;;;;;;6227159;23;20414;-78
2022/10/11 12:39:15;;;;;;;;;;;14.50;99.90;;;;;;6253536;23;20020;-78
2022/10/11 12:41:49;;;;;;;5.85;1.27;;;14.50;99.90;;;;;;6225926;23;20377;-78
2022/10/11 12:44:21;;;;;;;5.63;1.38;;;14.60;99.90;;;;;;6253084;23;20020;-79
2022/10/11 12:46:49;;;;;;;4.18;1.23;;;14.60;99.90;;;;;;6252580;23;20020;-78
2022/10/11 12:49:31;;;;;;;6.78;1.50;;;14.60;99.90;;;;;;6227672;23;20027;-78
2022/10/11 12:52:15;;;;;;;4.80;1.45;;;14.60;99.90;;;;;;6227479;23;20063;-78
2022/10/11 12:55:03;;;;;;;7.70;1.25;;;14.60;99.90;;;;;;6251773;23;20225;-77
2022/10/11 12:57:51;;;;;;;7.93;1.27;;;14.50;99.90;;;;;;6226375;23;20015;-77
2022/10/11 13:00:29;;;;;;;9.55;1.60;;;14.50;99.90;;;;;;6227131;23;20041;-78
2022/10/11 13:03:05;;;;;;;5.82;1.73;;;14.50;99.90;;;;;;6227300;23;20067;-78
2022/10/11 13:05:44;;;;;;;8.57;1.27;;;14.60;99.90;;;;;;6251923;23;20058;-78
2022/10/11 13:08:20;;;;;;;3.70;1.25;;;14.60;99.90;;;;;;6252324;23;20048;-78
2022/10/11 13:10:46;;;;;;;4.57;1.27;;;14.70;99.90;;;;;;6252129;23;20043;-78
2022/10/11 13:13:59;;;;;;;8.73;1.55;;;14.60;99.90;;;;;;6252562;23;20019;-78